sensor_id;sensor_type;location;lat;lon;timestamp;P1;durP1;ratioP1;P2;durP2;ratioP2
55292;SDS011;41157;53.560;10.098;2024-02-23T00:00:16;2.27;;;0.90;;
55292;SDS011;41157;53.560;10.098;2024-02-23T00:02:43;0.50;;;0.50;;
55292;SDS011;41157;53.560;10.098;2024-02-23T00:05:10;9.57;;;0.80;;
55292;SDS011;41157;53.560;10.098;2024-02-23T00:07:37;1.50;;;0.70;;
55292;SDS011;41157;53.560;10.098;2024-02-23T00:10:05;1.47;;;0.67;;
55292;SDS011;41157;53.560;10.098;2024-02-23T00:12:33;4.97;;;0.87;;
55292;SDS011;41157;53.560;10.098;2024-02-23T00:15:00;2.63;;;1.20;;
55292;SDS011;41157;53.560;10.098;2024-02-23T00:17:27;2.43;;;1.10;;
55292;SDS011;41157;53.560;10.098;2024-02-23T00:19:54;1.27;;;0.90;;
55292;SDS011;41157;53.560;10.098;2024-02-23T00:22:21;1.53;;;1.03;;
55292;SDS011;41157;53.560;10.098;2024-02-23T00:24:50;3.33;;;1.13;;
55292;SDS011;41157;53.560;10.098;2024-02-23T00:27:17;4.73;;;1.37;;
55292;SDS011;41157;53.560;10.098;2024-02-23T00:29:46;1.87;;;0.97;;
55292;SDS011;41157;53.560;10.098;2024-02-23T00:32:13;1.70;;;0.97;;
55292;SDS011;41157;53.560;10.098;2024-02-23T00:34:40;3.00;;;0.93;;
55292;SDS011;41157;53.560;10.098;2024-02-23T00:37:07;0.97;;;0.70;;
55292;SDS011;41157;53.560;10.098;2024-02-23T00:39:34;2.70;;;0.70;;
55292;SDS011;41157;53.560;10.098;2024-02-23T00:42:02;1.77;;;0.83;;
55292;SDS011;41157;53.560;10.098;2024-02-23T00:44:29;1.10;;;1.00;;
55292;SDS011;41157;53.560;10.098;2024-02-23T00:46:58;1.03;;;0.90;;
55292;SDS011;41157;53.560;10.098;2024-02-23T00:49:26;0.90;;;0.60;;
55292;SDS011;41157;53.560;10.098;2024-02-23T00:51:54;0.63;;;0.63;;
55292;SDS011;41157;53.560;10.098;2024-02-23T00:54:21;1.30;;;0.80;;
55292;SDS011;41157;53.560;10.098;2024-02-23T00:56:48;0.93;;;0.80;;
55292;SDS011;41157;53.560;10.098;2024-02-23T00:59:15;3.07;;;0.80;;
55292;SDS011;41157;53.560;10.098;2024-02-23T01:01:42;1.03;;;0.60;;
55292;SDS011;41157;53.560;10.098;2024-02-23T01:04:10;0.70;;;0.70;;
55292;SDS011;41157;53.560;10.098;2024-02-23T01:06:37;0.50;;;0.50;;
55292;SDS011;41157;53.560;10.098;2024-02-23T01:09:04;4.37;;;0.87;;
55292;SDS011;41157;53.560;10.098;2024-02-23T01:11:32;0.40;;;0.40;;
55292;SDS011;41157;53.560;10.098;2024-02-23T01:13:59;0.40;;;0.40;;
55292;SDS011;41157;53.560;10.098;2024-02-23T01:16:26;0.40;;;0.40;;
55292;SDS011;41157;53.560;10.098;2024-02-23T01:18:53;0.87;;;0.50;;
55292;SDS011;41157;53.560;10.098;2024-02-23T01:21:21;0.73;;;0.53;;
55292;SDS011;41157;53.560;10.098;2024-02-23T01:23:48;0.47;;;0.47;;
55292;SDS011;41157;53.560;10.098;2024-02-23T01:26:15;0.60;;;0.60;;
55292;SDS011;41157;53.560;10.098;2024-02-23T01:28:42;4.03;;;0.60;;
55292;SDS011;41157;53.560;10.098;2024-02-23T01:31:09;0.40;;;0.40;;
55292;SDS011;41157;53.560;10.098;2024-02-23T01:33:36;0.40;;;0.40;;
55292;SDS011;41157;53.560;10.098;2024-02-23T01:36:04;0.57;;;0.57;;
55292;SDS011;41157;53.560;10.098;2024-02-23T01:38:32;0.77;;;0.70;;
55292;SDS011;41157;53.560;10.098;2024-02-23T01:40:59;0.43;;;0.43;;
55292;SDS011;41157;53.560;10.098;2024-02-23T01:43:26;0.73;;;0.70;;
55292;SDS011;41157;53.560;10.098;2024-02-23T01:45:53;0.40;;;0.40;;
55292;SDS011;41157;53.560;10.098;2024-02-23T01:48:20;0.47;;;0.47;;
55292;SDS011;41157;53.560;10.098;2024-02-23T01:50:48;0.70;;;0.70;;
55292;SDS011;41157;53.560;10.098;2024-02-23T01:53:15;0.67;;;0.50;;
55292;SDS011;41157;53.560;10.098;2024-02-23T01:55:45;0.73;;;0.70;;
55292;SDS011;41157;53.560;10.098;2024-02-23T01:58:12;0.50;;;0.50;;
55292;SDS011;41157;53.560;10.098;2024-02-23T02:00:40;0.57;;;0.57;;
55292;SDS011;41157;53.560;10.098;2024-02-23T02:03:07;0.50;;;0.50;;
55292;SDS011;41157;53.560;10.098;2024-02-23T02:05:35;0.50;;;0.50;;
55292;SDS011;41157;53.560;10.098;2024-02-23T02:08:02;0.53;;;0.53;;
55292;SDS011;41157;53.560;10.098;2024-02-23T02:10:29;0.67;;;0.40;;
55292;SDS011;41157;53.560;10.098;2024-02-23T02:13:02;0.27;;;0.27;;
55292;SDS011;41157;53.560;10.098;2024-02-23T02:15:30;0.50;;;0.50;;
55292;SDS011;41157;53.560;10.098;2024-02-23T02:17:57;1.17;;;0.67;;
55292;SDS011;41157;53.560;10.098;2024-02-23T02:20:24;2.73;;;0.50;;
55292;SDS011;41157;53.560;10.098;2024-02-23T02:22:51;0.73;;;0.50;;
55292;SDS011;41157;53.560;10.098;2024-02-23T02:25:19;0.40;;;0.40;;
55292;SDS011;41157;53.560;10.098;2024-02-23T02:27:46;0.40;;;0.40;;
55292;SDS011;41157;53.560;10.098;2024-02-23T02:30:14;0.40;;;0.40;;
55292;SDS011;41157;53.560;10.098;2024-02-23T02:32:41;0.40;;;0.40;;
55292;SDS011;41157;53.560;10.098;2024-02-23T02:35:09;0.53;;;0.53;;
55292;SDS011;41157;53.560;10.098;2024-02-23T02:37:37;0.40;;;0.40;;
55292;SDS011;41157;53.560;10.098;2024-02-23T02:40:04;0.30;;;0.30;;
55292;SDS011;41157;53.560;10.098;2024-02-23T02:42:32;0.40;;;0.40;;
55292;SDS011;41157;53.560;10.098;2024-02-23T02:44:59;0.40;;;0.40;;
55292;SDS011;41157;53.560;10.098;2024-02-23T02:47:28;0.57;;;0.47;;
55292;SDS011;41157;53.560;10.098;2024-02-23T02:49:55;0.83;;;0.63;;
55292;SDS011;41157;53.560;10.098;2024-02-23T02:52:22;0.20;;;0.20;;
55292;SDS011;41157;53.560;10.098;2024-02-23T02:54:49;0.50;;;0.50;;
55292;SDS011;41157;53.560;10.098;2024-02-23T02:57:16;0.53;;;0.50;;
55292;SDS011;41157;53.560;10.098;2024-02-23T02:59:43;0.40;;;0.40;;
55292;SDS011;41157;53.560;10.098;2024-02-23T03:02:11;0.70;;;0.47;;
55292;SDS011;41157;53.560;10.098;2024-02-23T03:04:39;0.20;;;0.20;;
55292;SDS011;41157;53.560;10.098;2024-02-23T03:07:06;0.40;;;0.40;;
55292;SDS011;41157;53.560;10.098;2024-02-23T03:09:36;0.40;;;0.40;;
55292;SDS011;41157;53.560;10.098;2024-02-23T03:12:03;0.73;;;0.60;;
55292;SDS011;41157;53.560;10.098;2024-02-23T03:14:30;0.30;;;0.30;;
55292;SDS011;41157;53.560;10.098;2024-02-23T03:16:58;1.37;;;0.50;;
55292;SDS011;41157;53.560;10.098;2024-02-23T03:19:25;0.60;;;0.50;;
55292;SDS011;41157;53.560;10.098;2024-02-23T03:21:54;1.90;;;0.57;;
55292;SDS011;41157;53.560;10.098;2024-02-23T03:24:21;0.53;;;0.53;;
55292;SDS011;41157;53.560;10.098;2024-02-23T03:26:48;0.57;;;0.57;;
55292;SDS011;41157;53.560;10.098;2024-02-23T03:29:15;0.70;;;0.70;;
55292;SDS011;41157;53.560;10.098;2024-02-23T03:31:42;1.10;;;0.70;;
55292;SDS011;41157;53.560;10.098;2024-02-23T03:34:09;0.80;;;0.80;;
55292;SDS011;41157;53.560;10.098;2024-02-23T03:36:36;0.80;;;0.80;;
55292;SDS011;41157;53.560;10.098;2024-02-23T03:39:04;1.17;;;0.90;;
55292;SDS011;41157;53.560;10.098;2024-02-23T03:41:31;0.80;;;0.80;;
55292;SDS011;41157;53.560;10.098;2024-02-23T03:43:58;0.67;;;0.60;;
55292;SDS011;41157;53.560;10.098;2024-02-23T03:46:25;0.50;;;0.50;;
55292;SDS011;41157;53.560;10.098;2024-02-23T03:48:52;0.40;;;0.40;;
55292;SDS011;41157;53.560;10.098;2024-02-23T03:51:19;0.60;;;0.60;;
55292;SDS011;41157;53.560;10.098;2024-02-23T03:53:46;0.50;;;0.50;;
55292;SDS011;41157;53.560;10.098;2024-02-23T03:56:15;1.43;;;0.60;;
55292;SDS011;41157;53.560;10.098;2024-02-23T03:58:42;0.70;;;0.70;;
55292;SDS011;41157;53.560;10.098;2024-02-23T04:01:09;0.63;;;0.63;;
55292;SDS011;41157;53.560;10.098;2024-02-23T04:03:36;1.80;;;0.60;;
55292;SDS011;41157;53.560;10.098;2024-02-23T04:06:03;0.50;;;0.50;;
55292;SDS011;41157;53.560;10.098;2024-02-23T04:08:30;0.53;;;0.53;;
55292;SDS011;41157;53.560;10.098;2024-02-23T04:10:57;0.77;;;0.70;;
55292;SDS011;41157;53.560;10.098;2024-02-23T04:13:26;2.43;;;0.77;;
55292;SDS011;41157;53.560;10.098;2024-02-23T04:15:53;0.60;;;0.60;;
55292;SDS011;41157;53.560;10.098;2024-02-23T04:18:20;0.70;;;0.70;;
55292;SDS011;41157;53.560;10.098;2024-02-23T04:20:46;3.10;;;0.60;;
55292;SDS011;41157;53.560;10.098;2024-02-23T04:23:13;1.53;;;0.83;;
55292;SDS011;41157;53.560;10.098;2024-02-23T04:25:41;0.80;;;0.80;;
55292;SDS011;41157;53.560;10.098;2024-02-23T04:28:08;2.03;;;0.80;;
55292;SDS011;41157;53.560;10.098;2024-02-23T04:30:36;1.10;;;0.80;;
55292;SDS011;41157;53.560;10.098;2024-02-23T04:33:03;3.83;;;0.97;;
55292;SDS011;41157;53.560;10.098;2024-02-23T04:35:30;0.70;;;0.70;;
55292;SDS011;41157;53.560;10.098;2024-02-23T04:37:57;0.70;;;0.70;;
55292;SDS011;41157;53.560;10.098;2024-02-23T04:40:24;2.93;;;0.73;;
55292;SDS011;41157;53.560;10.098;2024-02-23T04:42:51;0.50;;;0.50;;
55292;SDS011;41157;53.560;10.098;2024-02-23T04:45:18;1.03;;;0.90;;
55292;SDS011;41157;53.560;10.098;2024-02-23T04:47:46;0.70;;;0.70;;
55292;SDS011;41157;53.560;10.098;2024-02-23T04:50:13;3.50;;;0.97;;
55292;SDS011;41157;53.560;10.098;2024-02-23T04:52:40;1.97;;;0.90;;
55292;SDS011;41157;53.560;10.098;2024-02-23T04:55:08;1.07;;;0.83;;
55292;SDS011;41157;53.560;10.098;2024-02-23T04:57:36;1.23;;;1.03;;
55292;SDS011;41157;53.560;10.098;2024-02-23T05:00:03;2.23;;;1.00;;
55292;SDS011;41157;53.560;10.098;2024-02-23T05:02:32;4.30;;;1.20;;
55292;SDS011;41157;53.560;10.098;2024-02-23T05:05:01;2.63;;;1.10;;
55292;SDS011;41157;53.560;10.098;2024-02-23T05:07:29;2.27;;;1.00;;
55292;SDS011;41157;53.560;10.098;2024-02-23T05:09:56;2.03;;;1.03;;
55292;SDS011;41157;53.560;10.098;2024-02-23T05:12:23;4.27;;;1.10;;
55292;SDS011;41157;53.560;10.098;2024-02-23T05:14:51;1.70;;;1.30;;
55292;SDS011;41157;53.560;10.098;2024-02-23T05:17:18;5.40;;;1.50;;
55292;SDS011;41157;53.560;10.098;2024-02-23T05:19:45;2.17;;;1.10;;
55292;SDS011;41157;53.560;10.098;2024-02-23T05:22:13;3.80;;;1.40;;
55292;SDS011;41157;53.560;10.098;2024-02-23T05:24:40;8.67;;;2.57;;
55292;SDS011;41157;53.560;10.098;2024-02-23T05:27:09;3.10;;;1.40;;
55292;SDS011;41157;53.560;10.098;2024-02-23T05:29:36;4.73;;;2.40;;
55292;SDS011;41157;53.560;10.098;2024-02-23T05:32:03;5.20;;;1.37;;
55292;SDS011;41157;53.560;10.098;2024-02-23T05:34:30;1.97;;;1.20;;
55292;SDS011;41157;53.560;10.098;2024-02-23T05:36:57;1.00;;;1.00;;
55292;SDS011;41157;53.560;10.098;2024-02-23T05:39:25;5.03;;;1.47;;
55292;SDS011;41157;53.560;10.098;2024-02-23T05:41:54;2.27;;;1.93;;
55292;SDS011;41157;53.560;10.098;2024-02-23T05:44:22;4.13;;;1.30;;
55292;SDS011;41157;53.560;10.098;2024-02-23T05:46:49;1.73;;;1.10;;
55292;SDS011;41157;53.560;10.098;2024-02-23T05:49:16;1.70;;;1.10;;
55292;SDS011;41157;53.560;10.098;2024-02-23T05:51:43;1.30;;;1.10;;
55292;SDS011;41157;53.560;10.098;2024-02-23T05:54:10;3.90;;;1.30;;
55292;SDS011;41157;53.560;10.098;2024-02-23T05:56:38;5.93;;;1.33;;
55292;SDS011;41157;53.560;10.098;2024-02-23T05:59:05;6.67;;;1.70;;
55292;SDS011;41157;53.560;10.098;2024-02-23T06:01:32;8.60;;;1.60;;
55292;SDS011;41157;53.560;10.098;2024-02-23T06:03:59;1.33;;;1.13;;
55292;SDS011;41157;53.560;10.098;2024-02-23T06:06:26;1.40;;;1.03;;
55292;SDS011;41157;53.560;10.098;2024-02-23T06:08:53;2.53;;;1.23;;
55292;SDS011;41157;53.560;10.098;2024-02-23T06:11:20;1.37;;;0.90;;
55292;SDS011;41157;53.560;10.098;2024-02-23T06:13:49;1.03;;;0.97;;
55292;SDS011;41157;53.560;10.098;2024-02-23T06:16:15;2.73;;;1.20;;
55292;SDS011;41157;53.560;10.098;2024-02-23T06:18:42;1.40;;;1.10;;
55292;SDS011;41157;53.560;10.098;2024-02-23T06:21:12;5.97;;;1.00;;
55292;SDS011;41157;53.560;10.098;2024-02-23T06:23:40;3.23;;;1.30;;
55292;SDS011;41157;53.560;10.098;2024-02-23T06:26:07;4.30;;;1.30;;
55292;SDS011;41157;53.560;10.098;2024-02-23T06:28:34;2.90;;;1.00;;
55292;SDS011;41157;53.560;10.098;2024-02-23T06:31:03;4.17;;;1.40;;
55292;SDS011;41157;53.560;10.098;2024-02-23T06:33:30;3.33;;;1.20;;
55292;SDS011;41157;53.560;10.098;2024-02-23T06:35:58;1.60;;;1.03;;
55292;SDS011;41157;53.560;10.098;2024-02-23T06:38:25;1.67;;;1.20;;
55292;SDS011;41157;53.560;10.098;2024-02-23T06:40:52;1.83;;;1.10;;
55292;SDS011;41157;53.560;10.098;2024-02-23T06:43:20;2.07;;;1.43;;
55292;SDS011;41157;53.560;10.098;2024-02-23T06:45:47;2.23;;;1.20;;
55292;SDS011;41157;53.560;10.098;2024-02-23T06:48:15;3.43;;;1.50;;
55292;SDS011;41157;53.560;10.098;2024-02-23T06:50:42;7.93;;;1.80;;
55292;SDS011;41157;53.560;10.098;2024-02-23T06:53:10;1.73;;;0.90;;
55292;SDS011;41157;53.560;10.098;2024-02-23T06:55:37;4.80;;;1.60;;
55292;SDS011;41157;53.560;10.098;2024-02-23T06:58:04;2.57;;;1.40;;
55292;SDS011;41157;53.560;10.098;2024-02-23T07:00:32;2.70;;;1.47;;
55292;SDS011;41157;53.560;10.098;2024-02-23T07:02:59;3.47;;;1.40;;
55292;SDS011;41157;53.560;10.098;2024-02-23T07:05:29;3.27;;;1.50;;
55292;SDS011;41157;53.560;10.098;2024-02-23T07:07:57;6.87;;;1.80;;
55292;SDS011;41157;53.560;10.098;2024-02-23T07:10:24;2.60;;;1.60;;
55292;SDS011;41157;53.560;10.098;2024-02-23T07:12:51;2.03;;;1.40;;
55292;SDS011;41157;53.560;10.098;2024-02-23T07:15:19;6.70;;;1.90;;
55292;SDS011;41157;53.560;10.098;2024-02-23T07:17:46;2.00;;;1.60;;
55292;SDS011;41157;53.560;10.098;2024-02-23T07:20:13;2.73;;;1.73;;
55292;SDS011;41157;53.560;10.098;2024-02-23T07:22:44;2.53;;;1.57;;
55292;SDS011;41157;53.560;10.098;2024-02-23T07:25:11;3.87;;;1.60;;
55292;SDS011;41157;53.560;10.098;2024-02-23T07:27:38;5.17;;;1.80;;
55292;SDS011;41157;53.560;10.098;2024-02-23T07:30:07;5.07;;;1.83;;
55292;SDS011;41157;53.560;10.098;2024-02-23T07:32:34;6.40;;;1.87;;
55292;SDS011;41157;53.560;10.098;2024-02-23T07:35:01;5.73;;;1.60;;
55292;SDS011;41157;53.560;10.098;2024-02-23T07:37:29;2.67;;;1.50;;
55292;SDS011;41157;53.560;10.098;2024-02-23T07:39:58;8.50;;;1.70;;
55292;SDS011;41157;53.560;10.098;2024-02-23T07:42:25;3.67;;;1.40;;
55292;SDS011;41157;53.560;10.098;2024-02-23T07:44:52;7.43;;;1.33;;
55292;SDS011;41157;53.560;10.098;2024-02-23T07:47:19;2.03;;;1.27;;
55292;SDS011;41157;53.560;10.098;2024-02-23T07:49:46;3.33;;;1.40;;
55292;SDS011;41157;53.560;10.098;2024-02-23T07:52:13;1.77;;;1.60;;
55292;SDS011;41157;53.560;10.098;2024-02-23T07:54:40;4.33;;;2.00;;
55292;SDS011;41157;53.560;10.098;2024-02-23T07:57:08;4.30;;;1.73;;
55292;SDS011;41157;53.560;10.098;2024-02-23T07:59:35;1.90;;;1.67;;
55292;SDS011;41157;53.560;10.098;2024-02-23T08:02:02;3.37;;;1.47;;
55292;SDS011;41157;53.560;10.098;2024-02-23T08:04:29;3.47;;;1.33;;
55292;SDS011;41157;53.560;10.098;2024-02-23T08:06:56;3.50;;;1.30;;
55292;SDS011;41157;53.560;10.098;2024-02-23T08:09:23;10.27;;;1.70;;
55292;SDS011;41157;53.560;10.098;2024-02-23T08:11:50;3.87;;;1.90;;
55292;SDS011;41157;53.560;10.098;2024-02-23T08:14:18;4.20;;;1.40;;
55292;SDS011;41157;53.560;10.098;2024-02-23T08:16:45;6.50;;;1.90;;
55292;SDS011;41157;53.560;10.098;2024-02-23T08:19:12;1.70;;;1.33;;
55292;SDS011;41157;53.560;10.098;2024-02-23T08:21:39;5.70;;;1.40;;
55292;SDS011;41157;53.560;10.098;2024-02-23T08:24:07;4.00;;;1.50;;
55292;SDS011;41157;53.560;10.098;2024-02-23T08:26:34;3.33;;;1.67;;
55292;SDS011;41157;53.560;10.098;2024-02-23T08:29:03;3.37;;;1.20;;
55292;SDS011;41157;53.560;10.098;2024-02-23T08:31:31;3.07;;;1.20;;
55292;SDS011;41157;53.560;10.098;2024-02-23T08:33:58;1.43;;;1.03;;
55292;SDS011;41157;53.560;10.098;2024-02-23T08:36:25;2.83;;;1.23;;
55292;SDS011;41157;53.560;10.098;2024-02-23T08:38:52;3.10;;;1.27;;
55292;SDS011;41157;53.560;10.098;2024-02-23T08:41:19;2.47;;;1.23;;
55292;SDS011;41157;53.560;10.098;2024-02-23T08:43:46;2.80;;;1.00;;
55292;SDS011;41157;53.560;10.098;2024-02-23T08:46:14;2.28;;;1.08;;
55292;SDS011;41157;53.560;10.098;2024-02-23T08:48:43;2.83;;;1.50;;
55292;SDS011;41157;53.560;10.098;2024-02-23T08:51:10;4.63;;;1.25;;
55292;SDS011;41157;53.560;10.098;2024-02-23T08:53:37;4.18;;;1.33;;
55292;SDS011;41157;53.560;10.098;2024-02-23T08:56:04;1.73;;;1.07;;
55292;SDS011;41157;53.560;10.098;2024-02-23T08:58:32;3.17;;;1.30;;
55292;SDS011;41157;53.560;10.098;2024-02-23T09:00:59;1.93;;;1.10;;
55292;SDS011;41157;53.560;10.098;2024-02-23T09:03:29;4.10;;;1.53;;
55292;SDS011;41157;53.560;10.098;2024-02-23T09:05:57;2.70;;;1.17;;
55292;SDS011;41157;53.560;10.098;2024-02-23T09:08:25;3.83;;;1.43;;
55292;SDS011;41157;53.560;10.098;2024-02-23T09:10:52;3.03;;;1.30;;
55292;SDS011;41157;53.560;10.098;2024-02-23T09:13:19;4.80;;;1.10;;
55292;SDS011;41157;53.560;10.098;2024-02-23T09:15:46;4.83;;;1.73;;
55292;SDS011;41157;53.560;10.098;2024-02-23T09:18:13;6.30;;;1.37;;
55292;SDS011;41157;53.560;10.098;2024-02-23T09:20:40;7.07;;;1.40;;
55292;SDS011;41157;53.560;10.098;2024-02-23T09:23:08;1.80;;;1.13;;
55292;SDS011;41157;53.560;10.098;2024-02-23T09:25:36;2.83;;;1.40;;
55292;SDS011;41157;53.560;10.098;2024-02-23T09:28:04;3.87;;;1.40;;
55292;SDS011;41157;53.560;10.098;2024-02-23T09:30:31;4.90;;;1.47;;
55292;SDS011;41157;53.560;10.098;2024-02-23T09:32:58;4.13;;;1.50;;
55292;SDS011;41157;53.560;10.098;2024-02-23T09:35:25;6.13;;;2.20;;
55292;SDS011;41157;53.560;10.098;2024-02-23T09:37:52;3.80;;;0.97;;
55292;SDS011;41157;53.560;10.098;2024-02-23T09:40:20;10.67;;;1.40;;
55292;SDS011;41157;53.560;10.098;2024-02-23T09:42:48;5.23;;;1.77;;
55292;SDS011;41157;53.560;10.098;2024-02-23T09:45:18;3.87;;;1.50;;
55292;SDS011;41157;53.560;10.098;2024-02-23T09:47:46;3.00;;;1.23;;
55292;SDS011;41157;53.560;10.098;2024-02-23T09:50:13;4.70;;;1.60;;
55292;SDS011;41157;53.560;10.098;2024-02-23T09:52:41;7.67;;;1.70;;
55292;SDS011;41157;53.560;10.098;2024-02-23T09:55:08;3.57;;;1.20;;
55292;SDS011;41157;53.560;10.098;2024-02-23T09:57:37;2.80;;;1.60;;
55292;SDS011;41157;53.560;10.098;2024-02-23T10:00:05;8.87;;;2.30;;
55292;SDS011;41157;53.560;10.098;2024-02-23T10:02:34;6.63;;;1.63;;
55292;SDS011;41157;53.560;10.098;2024-02-23T10:05:02;5.47;;;1.83;;
55292;SDS011;41157;53.560;10.098;2024-02-23T10:07:29;7.23;;;1.73;;
55292;SDS011;41157;53.560;10.098;2024-02-23T10:09:56;2.80;;;1.37;;
55292;SDS011;41157;53.560;10.098;2024-02-23T10:12:26;1.77;;;1.00;;
55292;SDS011;41157;53.560;10.098;2024-02-23T10:14:54;4.30;;;1.40;;
55292;SDS011;41157;53.560;10.098;2024-02-23T10:17:21;4.03;;;1.50;;
55292;SDS011;41157;53.560;10.098;2024-02-23T10:19:48;2.40;;;1.20;;
55292;SDS011;41157;53.560;10.098;2024-02-23T10:22:15;2.73;;;1.20;;
55292;SDS011;41157;53.560;10.098;2024-02-23T10:24:42;5.27;;;1.73;;
55292;SDS011;41157;53.560;10.098;2024-02-23T10:27:09;1.60;;;1.00;;
55292;SDS011;41157;53.560;10.098;2024-02-23T10:29:36;5.97;;;1.47;;
55292;SDS011;41157;53.560;10.098;2024-02-23T10:32:05;4.30;;;1.50;;
55292;SDS011;41157;53.560;10.098;2024-02-23T10:34:33;4.10;;;1.53;;
55292;SDS011;41157;53.560;10.098;2024-02-23T10:37:02;3.15;;;1.30;;
55292;SDS011;41157;53.560;10.098;2024-02-23T10:39:32;3.07;;;1.20;;
55292;SDS011;41157;53.560;10.098;2024-02-23T10:42:02;3.30;;;1.40;;
55292;SDS011;41157;53.560;10.098;2024-02-23T10:44:29;2.83;;;1.33;;
55292;SDS011;41157;53.560;10.098;2024-02-23T10:46:57;3.17;;;1.60;;
55292;SDS011;41157;53.560;10.098;2024-02-23T10:49:26;5.93;;;1.50;;
55292;SDS011;41157;53.560;10.098;2024-02-23T10:51:54;5.07;;;1.40;;
55292;SDS011;41157;53.560;10.098;2024-02-23T10:54:22;4.57;;;1.40;;
55292;SDS011;41157;53.560;10.098;2024-02-23T10:56:49;4.73;;;1.50;;
55292;SDS011;41157;53.560;10.098;2024-02-23T10:59:17;5.47;;;1.80;;
55292;SDS011;41157;53.560;10.098;2024-02-23T11:01:45;5.97;;;1.70;;
55292;SDS011;41157;53.560;10.098;2024-02-23T11:04:14;3.93;;;1.40;;
55292;SDS011;41157;53.560;10.098;2024-02-23T11:06:43;4.30;;;1.30;;
55292;SDS011;41157;53.560;10.098;2024-02-23T11:09:15;3.50;;;1.60;;
55292;SDS011;41157;53.560;10.098;2024-02-23T11:11:50;7.83;;;1.40;;
55292;SDS011;41157;53.560;10.098;2024-02-23T11:14:17;1.90;;;1.20;;
55292;SDS011;41157;53.560;10.098;2024-02-23T11:16:44;4.37;;;1.20;;
55292;SDS011;41157;53.560;10.098;2024-02-23T11:19:18;4.30;;;1.20;;
55292;SDS011;41157;53.560;10.098;2024-02-23T11:21:52;0.83;;;0.83;;
55292;SDS011;41157;53.560;10.098;2024-02-23T11:24:19;4.27;;;1.40;;
55292;SDS011;41157;53.560;10.098;2024-02-23T11:26:47;3.23;;;1.23;;
55292;SDS011;41157;53.560;10.098;2024-02-23T11:29:14;3.07;;;1.13;;
55292;SDS011;41157;53.560;10.098;2024-02-23T11:31:44;3.43;;;1.60;;
55292;SDS011;41157;53.560;10.098;2024-02-23T11:34:12;3.73;;;1.33;;
55292;SDS011;41157;53.560;10.098;2024-02-23T11:36:39;2.07;;;1.07;;
55292;SDS011;41157;53.560;10.098;2024-02-23T11:39:08;3.07;;;1.07;;
55292;SDS011;41157;53.560;10.098;2024-02-23T11:41:37;3.27;;;1.20;;
55292;SDS011;41157;53.560;10.098;2024-02-23T11:44:04;3.43;;;1.40;;
55292;SDS011;41157;53.560;10.098;2024-02-23T11:46:32;9.03;;;1.60;;
55292;SDS011;41157;53.560;10.098;2024-02-23T11:48:59;3.67;;;1.30;;
55292;SDS011;41157;53.560;10.098;2024-02-23T11:51:27;2.17;;;1.00;;
55292;SDS011;41157;53.560;10.098;2024-02-23T11:53:56;2.90;;;1.30;;
55292;SDS011;41157;53.560;10.098;2024-02-23T11:56:26;2.40;;;1.10;;
55292;SDS011;41157;53.560;10.098;2024-02-23T11:58:53;5.73;;;1.50;;
55292;SDS011;41157;53.560;10.098;2024-02-23T12:01:20;2.37;;;1.23;;
55292;SDS011;41157;53.560;10.098;2024-02-23T12:03:48;3.53;;;1.20;;
55292;SDS011;41157;53.560;10.098;2024-02-23T12:06:15;3.60;;;0.90;;
55292;SDS011;41157;53.560;10.098;2024-02-23T12:08:42;2.87;;;1.20;;
55292;SDS011;41157;53.560;10.098;2024-02-23T12:11:10;2.33;;;1.10;;
55292;SDS011;41157;53.560;10.098;2024-02-23T12:13:40;4.47;;;1.33;;
55292;SDS011;41157;53.560;10.098;2024-02-23T12:16:07;2.97;;;0.90;;
55292;SDS011;41157;53.560;10.098;2024-02-23T12:18:35;1.43;;;1.10;;
55292;SDS011;41157;53.560;10.098;2024-02-23T12:21:03;0.83;;;0.83;;
55292;SDS011;41157;53.560;10.098;2024-02-23T12:23:37;2.93;;;1.60;;
55292;SDS011;41157;53.560;10.098;2024-02-23T12:26:04;5.33;;;1.40;;
55292;SDS011;41157;53.560;10.098;2024-02-23T12:28:31;1.40;;;0.70;;
55292;SDS011;41157;53.560;10.098;2024-02-23T12:31:00;1.93;;;1.07;;
55292;SDS011;41157;53.560;10.098;2024-02-23T12:33:28;1.83;;;1.00;;
55292;SDS011;41157;53.560;10.098;2024-02-23T12:35:55;1.57;;;1.00;;
55292;SDS011;41157;53.560;10.098;2024-02-23T12:38:22;4.63;;;1.10;;
55292;SDS011;41157;53.560;10.098;2024-02-23T12:40:49;3.03;;;1.40;;
55292;SDS011;41157;53.560;10.098;2024-02-23T12:43:17;3.67;;;0.97;;
55292;SDS011;41157;53.560;10.098;2024-02-23T12:45:46;2.60;;;1.10;;
55292;SDS011;41157;53.560;10.098;2024-02-23T12:48:16;2.10;;;1.20;;
55292;SDS011;41157;53.560;10.098;2024-02-23T12:50:43;3.10;;;1.10;;
55292;SDS011;41157;53.560;10.098;2024-02-23T12:53:11;3.03;;;1.20;;
55292;SDS011;41157;53.560;10.098;2024-02-23T12:55:45;2.40;;;1.30;;
55292;SDS011;41157;53.560;10.098;2024-02-23T12:58:12;7.73;;;1.40;;
55292;SDS011;41157;53.560;10.098;2024-02-23T13:00:39;1.00;;;1.00;;
55292;SDS011;41157;53.560;10.098;2024-02-23T13:03:06;2.23;;;0.90;;
55292;SDS011;41157;53.560;10.098;2024-02-23T13:05:35;1.53;;;1.10;;
55292;SDS011;41157;53.560;10.098;2024-02-23T13:08:03;2.73;;;1.00;;
55292;SDS011;41157;53.560;10.098;2024-02-23T13:10:30;1.13;;;0.80;;
55292;SDS011;41157;53.560;10.098;2024-02-23T13:12:57;1.87;;;1.00;;
55292;SDS011;41157;53.560;10.098;2024-02-23T13:15:24;1.90;;;0.87;;
55292;SDS011;41157;53.560;10.098;2024-02-23T13:17:51;4.70;;;1.10;;
55292;SDS011;41157;53.560;10.098;2024-02-23T13:20:18;3.20;;;1.00;;
55292;SDS011;41157;53.560;10.098;2024-02-23T13:22:46;1.13;;;0.97;;
55292;SDS011;41157;53.560;10.098;2024-02-23T13:25:13;2.03;;;1.10;;
55292;SDS011;41157;53.560;10.098;2024-02-23T13:27:40;2.87;;;1.40;;
55292;SDS011;41157;53.560;10.098;2024-02-23T13:30:08;3.30;;;1.00;;
55292;SDS011;41157;53.560;10.098;2024-02-23T13:32:35;4.20;;;0.90;;
55292;SDS011;41157;53.560;10.098;2024-02-23T13:35:02;1.17;;;0.87;;
55292;SDS011;41157;53.560;10.098;2024-02-23T13:37:31;1.53;;;0.87;;
55292;SDS011;41157;53.560;10.098;2024-02-23T13:39:59;2.10;;;0.90;;
55292;SDS011;41157;53.560;10.098;2024-02-23T13:42:26;3.20;;;1.33;;
55292;SDS011;41157;53.560;10.098;2024-02-23T13:44:53;2.00;;;1.10;;
55292;SDS011;41157;53.560;10.098;2024-02-23T13:47:20;2.30;;;1.17;;
55292;SDS011;41157;53.560;10.098;2024-02-23T13:49:47;0.60;;;0.60;;
55292;SDS011;41157;53.560;10.098;2024-02-23T13:52:14;3.10;;;1.10;;
55292;SDS011;41157;53.560;10.098;2024-02-23T13:54:41;1.47;;;1.13;;
55292;SDS011;41157;53.560;10.098;2024-02-23T13:57:10;1.93;;;0.97;;
55292;SDS011;41157;53.560;10.098;2024-02-23T13:59:37;2.77;;;1.33;;
55292;SDS011;41157;53.560;10.098;2024-02-23T14:02:04;4.40;;;1.00;;
55292;SDS011;41157;53.560;10.098;2024-02-23T14:04:31;4.77;;;1.10;;
55292;SDS011;41157;53.560;10.098;2024-02-23T14:06:58;1.20;;;1.00;;
55292;SDS011;41157;53.560;10.098;2024-02-23T14:09:25;1.37;;;1.13;;
55292;SDS011;41157;53.560;10.098;2024-02-23T14:11:52;4.10;;;1.03;;
55292;SDS011;41157;53.560;10.098;2024-02-23T14:14:20;4.70;;;0.80;;
55292;SDS011;41157;53.560;10.098;2024-02-23T14:16:47;2.47;;;1.40;;
55292;SDS011;41157;53.560;10.098;2024-02-23T14:19:14;0.80;;;0.80;;
55292;SDS011;41157;53.560;10.098;2024-02-23T14:21:41;1.77;;;1.00;;
55292;SDS011;41157;53.560;10.098;2024-02-23T14:24:08;1.33;;;0.90;;
55292;SDS011;41157;53.560;10.098;2024-02-23T14:26:35;2.73;;;1.07;;
55292;SDS011;41157;53.560;10.098;2024-02-23T14:29:02;2.40;;;0.70;;
55292;SDS011;41157;53.560;10.098;2024-02-23T14:31:31;1.10;;;0.80;;
55292;SDS011;41157;53.560;10.098;2024-02-23T14:33:58;2.37;;;1.10;;